Station: Snowtown

  Atmospheric Gas Attenuation - ITU Rec 676-11   --------------- db/100km ---------------
Date Time Temp RH % AH g/m3 Dew Point Wind Direction Speed kph Gust kph Barometer mB Rainfall Since 9am 24GHz 47GHz 76GHz 122GHz 134GHz 241GHz
15 00:50 12.8 92 10.31 11.5 19 20 1016.1 1.8 23.3 29.2 47.6 125.3 123.6 426.4
15 00:40 12.9 93 10.48 11.8 20 24 1016 1.8 23.7 29.5 48.3 127.1 125.8 434.3
15 00:30 13 93 10.55 11.9 20 26 1016.1 1.8 23.8 29.5 48.6 127.8 126.7 437.3
15 00:20 13.1 92 10.5 11.8 24 26 1015.9 1.8 23.7 29.4 48.3 127.0 125.8 434.1
15 00:10 13.1 92 10.5 11.8 17 19 1016 1.8 23.7 29.4 48.3 127.0 125.8 434.2
15 00:00 13.2 92 10.56 11.9 19 24 1016 1.8 23.8 29.5 48.5 127.5 126.5 436.6
14 23:50 13.2 92 10.56 11.9 17 19 1015.9 1.8 23.8 29.5 48.5 127.5 126.5 436.6
14 23:40 13.2 92 10.56 11.9 15 17 1015.9 1.8 23.8 29.5 48.5 127.5 126.5 436.6
14 23:30 13.2 91 10.45 11.8 19 24 1016 1.8 23.6 29.3 48.0 126.3 124.9 431.1
14 23:20 13.3 91 10.51 11.9 17 20 1015.9 1.8 23.7 29.4 48.2 126.8 125.6 433.5
14 23:10 13.4 91 10.58 12 19 22 1015.9 1.8 23.9 29.5 48.4 127.4 126.4 436.4
14 23:00 13.4 90 10.46 11.8 20 24 1015.9 1.8 23.6 29.2 47.9 126.0 124.7 430.5
14 22:50 13.6 89 10.47 11.8 17 20 1015.8 1.8 23.6 29.2 47.8 125.8 124.5 429.8
14 22:40 13.7 89 10.54 11.9 17 22 1015.7 1.8 23.8 29.3 48.1 126.4 125.3 432.7
14 22:30 13.7 89 10.54 11.9 24 37 1015.6 1.8 23.8 29.3 48.1 126.4 125.3 432.6
14 22:20 13.8 90 10.72 12.2 26 32 1015.3 1.8 24.1 29.5 48.8 128.3 127.7 440.9
14 22:10 13.7 90 10.66 12.1 26 32 1015.3 1.6 24.0 29.5 48.6 127.8 127.0 438.5
14 22:00 13.8 90 10.72 12.2 24 37 1015.5 1.6 24.1 29.5 48.8 128.3 127.7 441.0
14 21:50 13.7 89 10.54 11.9 26 30 1015.5 1.6 23.8 29.3 48.0 126.4 125.3 432.6
14 21:40 13.9 87 10.43 11.8 26 32 1015.5 1.6 23.5 29.0 47.4 124.8 123.4 426.1
14 21:30 14 86 10.37 11.7 24 33 1015.7 1.6 23.4 28.9 47.1 124.0 122.5 422.6
14 21:20 13.9 86 10.31 11.6 24 28 1015.7 1.6 23.2 28.8 46.9 123.5 121.8 420.2
14 21:10 13.8 86 10.25 11.5 20 26 1015.7 1.6 23.1 28.7 46.7 123.0 121.1 417.8
14 21:00 13.8 85 10.13 11.3 28 35 1015.8 1.6 22.9 28.5 46.2 121.6 119.4 412.0
14 20:50 13.8 86 10.25 11.5 30 35 1015.6 1.6 23.1 28.7 46.7 123.0 121.1 417.8
14 20:40 13.6 86 10.12 11.3 30 37 1015.6 1.6 22.9 28.6 46.3 121.8 119.6 412.5
14 20:30 13.8 85 10.13 11.3 30 39 1015.6 1.6 22.9 28.5 46.2 121.6 119.4 411.9
14 20:20 13.8 85 10.13 11.3 32 35 1015.6 1.6 22.9 28.5 46.2 121.6 119.4 411.9
14 20:10 13.8 84 10.01 11.1 32 35 1015.5 1.6 22.6 28.3 45.7 120.2 117.7 406.0
14 20:00 13.9 84 10.07 11.2 22 30 1015.6 1.6 22.7 28.4 45.9 120.8 118.4 408.5
14 19:50 14 84 10.13 11.3 26 32 1015.5 1.6 22.9 28.5 46.1 121.3 119.1 410.8
14 19:40 13.8 86 10.25 11.5 20 22 1015.6 1.6 23.1 28.7 46.7 123.0 121.1 417.8
14 19:30 13.7 87 10.3 11.6 19 22 1015.5 1.6 23.2 28.9 47.0 123.7 121.9 420.8
14 19:20 13.7 86 10.18 11.4 19 20 1015.4 1.6 23.0 28.6 46.5 122.3 120.2 414.8
14 19:10 13.9 85 10.19 11.4 17 20 1015.4 1.6 23.0 28.6 46.4 122.1 120.1 414.3
14 19:00 13.9 85 10.19 11.4 20 22 1015.3 1.6 23.0 28.6 46.4 122.1 120.1 414.2
14 18:50 14 83 10.01 11.2 19 20 1015.2 1.6 22.6 28.2 45.6 119.9 117.4 404.9
14 18:40 14.1 82 9.95 11.1 19 20 1015.1 1.6 22.5 28.1 45.3 119.0 116.4 401.5
14 18:30 14.4 81 10.01 11.2 20 24 1015.2 1.6 22.6 28.1 45.4 119.3 116.8 402.8
14 18:20 14.6 80 10.01 11.2 19 22 1014.9 1.6 22.6 28.0 45.2 118.9 116.4 401.7
14 18:10 14.6 79 9.89 11 17 19 1014.9 1.6 22.3 27.8 44.7 117.6 114.8 395.9
14 18:00 15 77 9.87 11 17 20 1015 1.6 22.2 27.7 44.4 116.8 113.9 393.0
14 17:50 14.9 79 10.07 11.3 17 19 1014.8 1.6 22.7 28.0 45.3 119.1 116.8 403.0
14 17:40 14.6 79 9.89 11 15 17 1014.7 1.6 22.3 27.8 44.7 117.6 114.8 395.9
14 17:30 14.8 77 9.75 10.8 17 20 1014.7 1.6 22.0 27.5 44.0 115.7 112.6 388.2
14 17:20 15 76 9.75 10.8 20 22 1014.5 1.6 22.0 27.5 43.9 115.4 112.3 387.1
14 17:10 15.1 75 9.68 10.7 20 22 1014.4 1.6 21.8 27.3 43.6 114.5 111.2 383.3
14 17:00 15.4 74 9.72 10.8 19 28 1014.4 1.6 21.9 27.3 43.5 114.5 111.3 383.7
14 16:50 16 71 9.67 10.7 22 28 1014.2 1.6 21.8 27.0 43.0 113.0 109.7 378.4
14 16:40 16.2 70 9.65 10.7 26 28 1014.2 1.6 21.7 26.9 42.8 112.5 109.2 376.5
14 16:30 16.3 69 9.57 10.6 22 33 1014.3 1.6 21.5 26.8 42.4 111.5 108.0 372.3
14 16:20 16.1 70 9.59 10.6 22 30 1014.2 1.6 21.6 26.9 42.6 112.0 108.5 374.2
14 16:10 16.1 70 9.59 10.6 19 19 1014.2 1.6 21.6 26.9 42.6 112.0 108.5 374.2
14 16:00 16.7 67 9.52 10.5 20 24 1014.1 1.6 21.4 26.6 42.0 110.4 106.8 368.1
14 15:50 16.9 67 9.64 10.7 19 24 1014 1.6 21.7 26.7 42.4 111.4 108.0 372.6
14 15:40 17.3 67 9.87 11.1 24 28 1014 1.6 22.1 26.9 43.1 113.3 110.5 381.3
14 15:30 17.2 66 9.66 10.8 28 35 1014.1 1.6 21.7 26.6 42.3 111.2 107.9 372.2
14 15:20 17.4 64 9.48 10.5 32 35 1013.9 1.6 21.3 26.3 41.5 109.0 105.3 363.0
14 15:10 17.2 66 9.66 10.8 30 35 1013.9 1.6 21.7 26.6 42.3 111.2 107.9 372.1
14 15:00 17 68 9.84 11.1 24 28 1013.8 1.6 22.1 27.0 43.1 113.4 110.5 381.3
14 14:50 16.6 68 9.61 10.7 22 24 1013.7 1.6 21.6 26.7 42.4 111.5 108.0 372.6
14 14:40 17.1 67 9.75 10.9 24 32 1013.7 1.6 21.9 26.8 42.7 112.3 109.2 376.7
14 14:30 17.2 70 10.25 11.7 24 33 1013.7 1.6 22.9 27.6 44.7 117.5 115.7 399.3
14 14:20 16.8 72 10.29 11.7 28 30 1013.7 1.6 23.0 27.8 45.1 118.5 116.8 403.3
14 14:10 16.6 72 10.17 11.5 28 35 1013.8 1.6 22.8 27.6 44.7 117.5 115.5 398.7
14 14:00 16.6 75 10.59 12.2 28 37 1014 1.6 23.7 28.3 46.4 122.2 121.2 418.6
14 13:50 16.4 74 10.33 11.8 24 32 1013.9 1.6 23.1 28.0 45.5 119.6 118.0 407.3
14 13:40 16.4 73 10.19 11.6 28 33 1013.9 1.6 22.8 27.7 44.9 118.1 116.1 400.7
14 13:30 16.5 76 10.67 12.3 28 37 1014 1.6 23.9 28.5 46.8 123.2 122.5 423.0
14 13:20 16.2 76 10.48 12 26 30 1013.9 1.6 23.5 28.3 46.2 121.6 120.3 415.5
14 13:10 16.2 79 10.89 12.6 28 33 1013.8 1.6 24.4 29.0 47.9 126.1 126.0 435.2
14 13:00 16.1 81 11.1 12.8 30 39 1013.9 1.6 24.8 29.4 48.9 128.7 129.1 446.0
14 12:50 15.8 84 11.31 13.1 30 33 1013.8 1.6 25.3 29.8 50.0 131.6 132.5 458.0
14 12:40 15.2 84 10.9 12.5 32 39 1014 1.6 24.4 29.3 48.6 127.9 127.8 441.4
14 12:30 15.5 88 11.63 13.5 32 44 1014.3 1.6 26.0 30.5 51.6 135.9 137.6 475.9
14 12:20 14.7 90 11.33 13.1 32 35 1014.4 1.6 25.4 30.3 50.8 133.8 134.8 465.8
14 12:10 14.5 92 11.44 13.2 28 37 1014.5 1.6 25.6 30.5 51.4 135.4 136.7 472.6
14 12:00 14.3 92 11.3 13 28 39 1014.7 1.4 25.4 30.4 50.9 134.1 135.1 466.8
14 11:50 13.9 91 10.91 12.5 33 41 1014.8 1.2 24.5 29.8 49.5 130.3 130.2 449.7
14 11:40 13.9 91 10.91 12.5 30 33 1015 1.2 24.5 29.8 49.5 130.3 130.2 449.7
14 11:30 14.1 91 11.04 12.7 24 32 1015.1 1 24.8 30.0 49.9 131.5 131.7 455.1
14 11:20 14 90 10.86 12.4 22 24 1015.2 1 24.4 29.7 49.2 129.6 129.4 446.7
14 11:10 14.2 89 10.87 12.4 32 35 1015.2 0.4 24.4 29.7 49.1 129.4 129.2 446.1
14 11:00 14.6 89 11.14 12.8 30 39 1015.4 0.2 25.0 30.0 50.1 131.9 132.3 457.2
14 10:50 14.4 87 10.75 12.3 35 41 1015.3 0.2 24.2 29.4 48.5 127.7 127.1 439.0
14 10:40 14.7 87 10.95 12.6 28 33 1015.5 0 24.6 29.6 49.2 129.5 129.5 447.2
14 10:30 14.6 85 10.64 12.1 30 39 1015.6 0 23.9 29.1 47.9 126.1 125.3 432.5
14 10:20 14.8 84 10.64 12.1 28 32 1015.5 0 23.9 29.1 47.8 125.8 124.9 431.4
14 10:10 14.6 84 10.51 11.9 26 33 1015.5 0 23.6 28.9 47.4 124.6 123.4 426.1
14 10:00 14.4 84 10.38 11.7 20 28 1015.6 0 23.4 28.8 46.9 123.5 122.0 420.9
14 09:50 14.5 83 10.32 11.6 24 26 1015.6 0 23.2 28.6 46.6 122.6 121.0 417.4
14 09:40 14.1 83 10.07 11.3 24 28 1015.6 0 22.7 28.3 45.8 120.4 118.1 407.4
14 09:30 14.2 83 10.14 11.4 19 20 1015.6 0 22.9 28.4 46.0 121.1 118.9 410.3
14 09:20 14 83 10.01 11.2 15 19 1015.6 0 22.6 28.3 45.6 119.9 117.4 405.0
14 09:10 14.1 83 10.07 11.3 17 19 1015.6 0 22.7 28.3 45.8 120.4 118.1 407.4
14 09:00 13.9 82 9.83 10.9 13 22 1015.5 0 22.2 28.0 44.9 118.0 115.1 396.8
14 08:50 13.7 84 9.95 11 11 13 1015.4 2.4 22.5 28.2 45.5 119.7 117.0 403.6
14 08:40 13.4 83 9.65 10.6 15 17 1015.4 2.4 21.9 27.8 44.4 116.8 113.3 390.6
14 08:30 13.2 84 9.65 10.6 13 17 1015.5 2.4 21.9 27.9 44.5 117.1 113.6 391.7
14 08:20 12.9 84 9.47 10.3 7 7 1015.4 2.4 21.5 27.7 43.9 115.5 111.6 384.4

Last Refresh: 15-Jun-2024 00:57:34

Bureau of Meteorology